createdAt,value
2023-05-16T00:00:16.995Z,0.00
2023-05-16T00:01:16.976Z,0.00
2023-05-16T00:02:17.057Z,0.00
2023-05-16T00:03:17.023Z,0.00
2023-05-16T00:04:16.970Z,0.00
2023-05-16T00:05:16.938Z,0.00
2023-05-16T00:06:16.936Z,0.00
2023-05-16T00:07:16.915Z,0.00
2023-05-16T00:08:16.956Z,0.00
2023-05-16T00:09:16.891Z,0.00
2023-05-16T00:10:16.890Z,0.00
2023-05-16T00:11:16.875Z,0.00
2023-05-16T00:12:16.866Z,0.00
2023-05-16T00:13:16.854Z,0.00
2023-05-16T00:14:16.875Z,0.00
2023-05-16T00:15:16.842Z,0.00
2023-05-16T00:16:16.859Z,0.00
2023-05-16T00:17:16.863Z,0.00
2023-05-16T00:18:16.806Z,0.00
2023-05-16T00:19:16.877Z,0.00
2023-05-16T00:20:16.806Z,0.00
2023-05-16T00:21:16.787Z,0.00
2023-05-16T00:22:16.778Z,0.00
2023-05-16T00:23:16.764Z,0.00
2023-05-16T00:24:16.769Z,0.00
2023-05-16T00:25:16.746Z,0.00
2023-05-16T00:26:16.765Z,0.00
2023-05-16T00:27:16.721Z,0.00
2023-05-16T00:28:16.711Z,0.00
2023-05-16T00:29:16.709Z,0.00
2023-05-16T00:30:16.701Z,0.00
2023-05-16T00:31:16.729Z,0.00
2023-05-16T00:32:16.812Z,0.00
2023-05-16T00:33:16.672Z,0.00
2023-05-16T00:34:16.694Z,0.00
2023-05-16T00:35:16.639Z,0.00
2023-05-16T00:36:16.634Z,0.00
2023-05-16T00:37:16.628Z,0.00
2023-05-16T00:38:16.647Z,0.00
2023-05-16T00:39:16.600Z,0.00
2023-05-16T00:40:16.601Z,0.00
2023-05-16T00:41:16.579Z,0.00
2023-05-16T00:42:16.565Z,0.00
2023-05-16T00:43:16.560Z,0.00
2023-05-16T00:44:16.573Z,0.00
2023-05-16T00:45:16.551Z,0.00
2023-05-16T00:46:16.584Z,0.00
2023-05-16T00:47:16.523Z,0.00
2023-05-16T00:48:16.552Z,0.00
2023-05-16T00:49:16.496Z,0.00
2023-05-16T00:50:16.505Z,0.00
2023-05-16T00:51:16.470Z,0.00
2023-05-16T00:52:16.482Z,0.00
2023-05-16T00:53:16.448Z,0.00
2023-05-16T00:54:16.465Z,0.00
2023-05-16T00:55:16.442Z,0.00
2023-05-16T00:56:16.447Z,0.00
2023-05-16T00:57:16.405Z,0.00
2023-05-16T00:58:16.413Z,0.00
2023-05-16T00:59:16.387Z,0.00
2023-05-16T01:00:16.382Z,0.00
2023-05-16T01:01:16.381Z,0.00
2023-05-16T01:02:16.452Z,0.00
2023-05-16T01:03:16.513Z,0.00
2023-05-16T01:04:16.336Z,0.00
2023-05-16T01:05:16.337Z,0.00
2023-05-16T01:06:16.311Z,0.00
2023-05-16T01:07:16.313Z,0.00
2023-05-16T01:08:16.319Z,0.00
2023-05-16T01:09:16.281Z,0.00
2023-05-16T01:10:16.287Z,0.00
2023-05-16T01:11:16.263Z,0.00
2023-05-16T01:12:16.250Z,0.00
2023-05-16T01:13:16.248Z,0.00
2023-05-16T01:14:16.291Z,0.00
2023-05-16T01:15:16.229Z,0.00
2023-05-16T01:16:16.263Z,0.00
2023-05-16T01:17:16.203Z,0.00
2023-05-16T01:18:16.258Z,0.00
2023-05-16T01:19:16.320Z,0.00
2023-05-16T01:20:16.218Z,0.00
2023-05-16T01:21:16.157Z,0.00
2023-05-16T01:22:16.155Z,0.00
2023-05-16T01:23:16.152Z,0.00
2023-05-16T01:24:16.131Z,0.00
2023-05-16T01:25:16.122Z,0.00
2023-05-16T01:26:16.146Z,0.00
2023-05-16T01:27:16.105Z,0.00
2023-05-16T01:28:16.096Z,0.00
2023-05-16T01:29:16.111Z,0.00
2023-05-16T01:30:16.088Z,0.00
2023-05-16T01:31:16.208Z,0.00
2023-05-16T01:32:16.076Z,0.00
2023-05-16T01:33:16.039Z,0.00
2023-05-16T01:34:16.026Z,0.00
2023-05-16T01:35:16.033Z,0.00
2023-05-16T01:36:16.013Z,0.00
2023-05-16T01:37:16.011Z,0.00
2023-05-16T01:38:16.004Z,0.00
2023-05-16T01:39:15.991Z,0.00
2023-05-16T01:40:15.971Z,0.00
2023-05-16T01:41:15.965Z,0.00
2023-05-16T01:42:15.959Z,0.00
2023-05-16T01:43:15.942Z,0.00
2023-05-16T01:44:15.952Z,0.00
2023-05-16T01:45:15.926Z,0.00
2023-05-16T01:46:15.948Z,0.00
2023-05-16T01:47:15.950Z,0.00
2023-05-16T01:48:15.898Z,1.00
2023-05-16T01:49:15.830Z,1.00
2023-05-16T01:50:15.888Z,0.00
2023-05-16T01:51:15.848Z,0.00
2023-05-16T01:52:15.835Z,0.00
2023-05-16T01:53:15.830Z,0.00
2023-05-16T01:54:15.817Z,0.00
2023-05-16T01:55:15.809Z,0.00
2023-05-16T01:56:15.819Z,0.00
2023-05-16T01:57:15.793Z,0.00
2023-05-16T01:58:15.777Z,0.00
2023-05-16T01:59:15.780Z,0.00
2023-05-16T02:00:15.763Z,0.00
2023-05-16T02:01:15.785Z,0.00
2023-05-16T02:02:15.762Z,0.00
2023-05-16T02:03:15.907Z,0.00
2023-05-16T02:04:15.978Z,0.00
2023-05-16T02:05:15.712Z,0.00
2023-05-16T02:06:15.657Z,1.00
2023-05-16T02:07:15.632Z,1.00
2023-05-16T02:08:15.649Z,2.00
2023-05-16T02:09:15.619Z,1.00
2023-05-16T02:10:15.603Z,1.00
2023-05-16T02:11:15.619Z,3.00
2023-05-16T02:12:15.587Z,2.00
2023-05-16T02:13:15.562Z,1.00
2023-05-16T02:14:15.679Z,1.00
2023-05-16T02:15:15.564Z,2.00
2023-05-16T02:16:15.613Z,1.00
2023-05-16T02:17:15.529Z,2.00
2023-05-16T02:18:15.517Z,3.00
2023-05-16T02:19:15.634Z,4.00
2023-05-16T02:20:15.549Z,3.00
2023-05-16T02:21:15.503Z,4.00
2023-05-16T02:22:15.485Z,3.00
2023-05-16T02:23:15.486Z,3.00
2023-05-16T02:24:15.458Z,4.00
2023-05-16T02:25:15.461Z,5.00
2023-05-16T02:26:15.464Z,7.00
2023-05-16T02:27:15.438Z,6.00
2023-05-16T02:28:15.424Z,5.00
2023-05-16T02:29:15.423Z,4.00
2023-05-16T02:30:15.414Z,4.00
2023-05-16T02:31:15.475Z,5.00
2023-05-16T02:32:15.413Z,5.00
2023-05-16T02:33:15.380Z,6.00
2023-05-16T02:34:15.369Z,9.00
2023-05-16T02:35:15.435Z,7.00
2023-05-16T02:36:15.355Z,6.00
2023-05-16T02:37:15.330Z,8.00
2023-05-16T02:38:15.351Z,8.00
2023-05-16T02:39:15.321Z,8.00
2023-05-16T02:40:15.313Z,9.00
2023-05-16T02:41:15.301Z,9.00
2023-05-16T02:42:15.290Z,10.00
2023-05-16T02:43:15.275Z,10.00
2023-05-16T02:44:15.291Z,10.00
2023-05-16T02:45:15.255Z,11.00
2023-05-16T02:46:15.265Z,11.00
2023-05-16T02:47:15.234Z,12.00
2023-05-16T02:48:15.262Z,13.00
2023-05-16T02:49:15.228Z,12.00
2023-05-16T02:50:15.204Z,13.00
2023-05-16T02:51:15.228Z,14.00
2023-05-16T02:52:15.170Z,14.00
2023-05-16T02:53:15.169Z,15.00
2023-05-16T02:54:15.156Z,14.00
2023-05-16T02:56:15.148Z,15.00
2023-05-16T02:57:15.115Z,16.00
2023-05-16T02:58:15.106Z,17.00
2023-05-16T02:59:15.102Z,17.00
2023-05-16T03:00:16.712Z,18.00
2023-05-16T03:01:15.103Z,19.00
2023-05-16T03:02:15.086Z,19.00
2023-05-16T03:03:15.162Z,19.00
2023-05-16T03:04:15.126Z,20.00
2023-05-16T03:05:15.044Z,20.00
2023-05-16T03:06:15.030Z,22.00
2023-05-16T03:07:15.016Z,22.00
2023-05-16T03:08:15.116Z,23.00
2023-05-16T03:09:15.000Z,24.00
2023-05-16T03:10:14.981Z,25.00
2023-05-16T03:11:14.986Z,26.00
2023-05-16T03:12:14.960Z,27.00
2023-05-16T03:13:14.962Z,28.00
2023-05-16T03:14:14.969Z,29.00
2023-05-16T03:15:14.940Z,30.00
2023-05-16T03:16:14.953Z,30.00
2023-05-16T03:17:14.922Z,31.00
2023-05-16T03:18:14.901Z,32.00
2023-05-16T03:19:14.958Z,33.00
2023-05-16T03:20:14.947Z,33.00
2023-05-16T03:21:14.884Z,34.00
2023-05-16T03:22:14.865Z,35.00
2023-05-16T03:23:14.853Z,36.00
2023-05-16T03:24:14.895Z,37.00
2023-05-16T03:25:14.846Z,37.00
2023-05-16T03:26:14.864Z,38.00
2023-05-16T03:27:14.820Z,38.00
2023-05-16T03:28:15.496Z,40.00
2023-05-16T03:29:14.811Z,41.00
2023-05-16T03:30:14.793Z,42.00
2023-05-16T03:31:14.808Z,43.00
2023-05-16T03:32:14.797Z,44.00
2023-05-16T03:33:14.756Z,45.00
2023-05-16T03:34:14.755Z,46.00
2023-05-16T03:35:14.740Z,47.00
2023-05-16T03:36:14.716Z,49.00
2023-05-16T03:37:14.717Z,50.00
2023-05-16T03:38:14.738Z,52.00
2023-05-16T03:39:14.696Z,53.00
2023-05-16T03:40:14.689Z,55.00
2023-05-16T03:41:14.682Z,57.00
2023-05-16T03:42:14.669Z,59.00
2023-05-16T03:43:14.656Z,61.00
2023-05-16T03:44:14.674Z,62.00
2023-05-16T03:45:14.640Z,62.00
2023-05-16T03:46:14.735Z,62.00
2023-05-16T03:47:14.620Z,62.00
2023-05-16T03:48:14.623Z,61.00
2023-05-16T03:49:14.580Z,61.00
2023-05-16T03:50:14.596Z,59.00
2023-05-16T03:51:14.564Z,57.00
2023-05-16T03:52:14.553Z,56.00
2023-05-16T03:53:14.551Z,54.00
2023-05-16T03:54:14.532Z,53.00
2023-05-16T03:55:14.594Z,52.00
2023-05-16T03:56:14.537Z,50.00
2023-05-16T03:57:14.513Z,48.00
2023-05-16T03:58:14.498Z,46.00
2023-05-16T03:59:14.494Z,46.00
2023-05-16T04:00:14.495Z,46.00
2023-05-16T04:01:14.473Z,46.00
2023-05-16T04:02:15.444Z,46.00
2023-05-16T04:03:14.495Z,47.00
2023-05-16T04:04:14.447Z,50.00
2023-05-16T04:05:14.445Z,53.00
2023-05-16T04:06:14.509Z,56.00
2023-05-16T04:07:14.398Z,60.00
2023-05-16T04:08:14.421Z,65.00
2023-05-16T04:09:14.381Z,69.00
2023-05-16T04:10:14.364Z,73.00
2023-05-16T04:11:14.359Z,77.00
2023-05-16T04:12:14.348Z,81.00
2023-05-16T04:13:14.375Z,85.00
2023-05-16T04:14:14.349Z,89.00
2023-05-16T04:15:14.312Z,92.00
2023-05-16T04:16:14.342Z,97.00
2023-05-16T04:17:14.377Z,101.00
2023-05-16T04:18:14.325Z,106.00
2023-05-16T04:19:14.305Z,110.00
2023-05-16T04:20:14.300Z,114.00
2023-05-16T04:21:14.261Z,120.00
2023-05-16T04:22:14.261Z,123.00
2023-05-16T04:23:14.255Z,126.00
2023-05-16T04:24:14.242Z,131.00
2023-05-16T04:25:14.220Z,134.00
2023-05-16T04:26:14.365Z,138.00
2023-05-16T04:27:14.204Z,141.00
2023-05-16T04:28:14.183Z,143.00
2023-05-16T04:29:14.187Z,146.00
2023-05-16T04:30:14.182Z,149.00
2023-05-16T04:31:14.263Z,153.00
2023-05-16T04:32:14.174Z,157.00
2023-05-16T04:33:14.206Z,159.00
2023-05-16T04:34:14.135Z,163.00
2023-05-16T04:35:14.133Z,167.00
2023-05-16T04:36:14.120Z,171.00
2023-05-16T04:37:14.138Z,175.00
2023-05-16T04:38:14.121Z,178.00
2023-05-16T04:39:14.084Z,180.00
2023-05-16T04:40:14.073Z,182.00
2023-05-16T04:41:14.058Z,183.00
2023-05-16T04:42:14.057Z,185.00
2023-05-16T04:43:14.058Z,185.00
2023-05-16T04:44:14.066Z,187.00
2023-05-16T04:45:14.024Z,187.00
2023-05-16T04:46:14.048Z,188.00
2023-05-16T04:47:14.007Z,188.00
2023-05-16T04:48:14.026Z,189.00
2023-05-16T04:49:13.971Z,188.00
2023-05-16T04:50:13.980Z,188.00
2023-05-16T04:51:13.954Z,188.00
2023-05-16T04:52:13.944Z,189.00
2023-05-16T04:53:13.943Z,190.00
2023-05-16T04:54:13.918Z,190.00
2023-05-16T04:55:13.912Z,192.00
2023-05-16T04:56:13.937Z,193.00
2023-05-16T04:57:13.899Z,194.00
2023-05-16T04:58:13.890Z,196.00
2023-05-16T04:59:13.892Z,197.00
2023-05-16T05:00:13.867Z,198.00
2023-05-16T05:01:13.965Z,198.00
2023-05-16T05:02:13.948Z,198.00
2023-05-16T05:03:13.904Z,197.00
2023-05-16T05:04:13.821Z,196.00
2023-05-16T05:05:13.884Z,194.00
2023-05-16T05:06:13.798Z,192.00
2023-05-16T05:07:13.792Z,190.00
2023-05-16T05:08:13.811Z,187.00
2023-05-16T05:09:13.800Z,185.00
2023-05-16T05:10:13.760Z,182.00
2023-05-16T05:11:13.751Z,179.00
2023-05-16T05:12:13.735Z,177.00
2023-05-16T05:13:13.739Z,174.00
2023-05-16T05:14:13.728Z,173.00
2023-05-16T05:15:13.722Z,170.00
2023-05-16T05:16:13.721Z,167.00
2023-05-16T05:17:13.692Z,163.00
2023-05-16T05:18:13.777Z,159.00
2023-05-16T05:19:13.706Z,156.00
2023-05-16T05:20:13.698Z,153.00
2023-05-16T05:21:13.665Z,153.00
2023-05-16T05:22:13.637Z,152.00
2023-05-16T05:23:13.627Z,151.00
2023-05-16T05:24:13.633Z,151.00
2023-05-16T05:25:13.615Z,149.00
2023-05-16T05:26:13.628Z,147.00
2023-05-16T05:27:13.582Z,144.00
2023-05-16T05:28:13.586Z,141.00
2023-05-16T05:29:13.570Z,139.00
2023-05-16T05:30:13.556Z,135.00
2023-05-16T05:31:13.645Z,131.00
2023-05-16T05:32:13.621Z,128.00
2023-05-16T05:33:13.568Z,123.00
2023-05-16T05:34:13.520Z,119.00
2023-05-16T05:35:13.509Z,116.00
2023-05-16T05:36:13.489Z,113.00
2023-05-16T05:37:13.497Z,111.00
2023-05-16T05:38:13.501Z,107.00
2023-05-16T05:39:13.456Z,104.00
2023-05-16T05:40:13.634Z,101.00
2023-05-16T05:41:13.444Z,100.00
2023-05-16T05:42:13.435Z,99.00
2023-05-16T05:43:13.414Z,99.00
2023-05-16T05:44:13.434Z,100.00
2023-05-16T05:45:13.403Z,102.00
2023-05-16T05:46:13.442Z,103.00
2023-05-16T05:47:13.376Z,106.00
2023-05-16T05:48:13.392Z,109.00
2023-05-16T05:49:13.346Z,113.00
2023-05-16T05:50:13.360Z,116.00
2023-05-16T05:51:13.317Z,120.00
2023-05-16T05:52:13.315Z,121.00
2023-05-16T05:53:13.292Z,125.00
2023-05-16T05:54:13.292Z,129.00
2023-05-16T05:55:13.292Z,132.00
2023-05-16T05:56:13.294Z,135.00
2023-05-16T05:57:13.300Z,137.00
2023-05-16T05:58:13.266Z,137.00
2023-05-16T05:59:13.247Z,136.00
2023-05-16T06:00:13.241Z,133.00
2023-05-16T06:01:13.239Z,131.00
2023-05-16T06:02:13.266Z,127.00
2023-05-16T06:03:13.235Z,127.00
2023-05-16T06:04:13.202Z,127.00
2023-05-16T06:05:13.273Z,126.00
2023-05-16T06:06:13.167Z,127.00
2023-05-16T06:07:13.159Z,127.00
2023-05-16T06:08:13.182Z,128.00
2023-05-16T06:09:13.130Z,128.00
2023-05-16T06:10:13.138Z,128.00
2023-05-16T06:11:13.119Z,130.00
2023-05-16T06:12:13.131Z,132.00
2023-05-16T06:13:13.088Z,137.00
2023-05-16T06:14:13.113Z,141.00
2023-05-16T06:15:13.079Z,148.00
2023-05-16T06:16:13.070Z,153.00
2023-05-16T06:17:13.162Z,160.00
2023-05-16T06:18:13.160Z,165.00
2023-05-16T06:19:13.075Z,168.00
2023-05-16T06:20:13.086Z,170.00
2023-05-16T06:21:13.023Z,172.00
2023-05-16T06:22:13.016Z,174.00
2023-05-16T06:23:12.999Z,177.00
2023-05-16T06:24:12.984Z,177.00
2023-05-16T06:25:12.986Z,180.00
2023-05-16T06:26:12.995Z,182.00
2023-05-16T06:27:12.957Z,185.00
2023-05-16T06:28:12.965Z,187.00
2023-05-16T06:29:12.939Z,188.00
2023-05-16T06:30:12.927Z,189.00
2023-05-16T06:31:12.939Z,190.00
2023-05-16T06:32:13.596Z,190.00
2023-05-16T06:33:12.891Z,190.00
2023-05-16T06:34:12.881Z,189.00
2023-05-16T06:35:12.887Z,187.00
2023-05-16T06:36:12.887Z,186.00
2023-05-16T06:37:12.852Z,186.00
2023-05-16T06:38:12.888Z,187.00
2023-05-16T06:39:12.830Z,189.00
2023-05-16T06:40:12.844Z,189.00
2023-05-16T06:41:12.818Z,188.00
2023-05-16T06:42:12.811Z,187.00
2023-05-16T06:43:12.792Z,190.00
2023-05-16T06:44:12.804Z,193.00
2023-05-16T06:45:12.761Z,196.00
2023-05-16T06:46:12.785Z,199.00
2023-05-16T06:47:12.742Z,204.00
2023-05-16T06:48:12.744Z,210.00
2023-05-16T06:49:12.720Z,219.00
2023-05-16T06:50:12.755Z,228.00
2023-05-16T06:51:12.693Z,234.00
2023-05-16T06:52:13.636Z,241.00
2023-05-16T06:53:12.684Z,248.00
2023-05-16T06:54:12.678Z,254.00
2023-05-16T06:55:12.695Z,261.00
2023-05-16T06:56:12.674Z,268.00
2023-05-16T06:57:12.637Z,274.00
2023-05-16T06:58:12.626Z,278.00
2023-05-16T06:59:12.622Z,280.00
2023-05-16T07:00:12.622Z,280.00
2023-05-16T07:01:12.609Z,280.00
2023-05-16T07:02:12.612Z,281.00
2023-05-16T07:03:12.636Z,285.00
2023-05-16T07:04:12.704Z,290.00
2023-05-16T07:05:12.567Z,296.00
2023-05-16T07:06:12.546Z,304.00
2023-05-16T07:07:12.531Z,311.00
2023-05-16T07:08:12.558Z,317.00
2023-05-16T07:09:12.518Z,323.00
2023-05-16T07:10:12.505Z,328.00
2023-05-16T07:11:12.495Z,329.00
2023-05-16T07:12:12.485Z,331.00
2023-05-16T07:13:12.470Z,333.00
2023-05-16T07:14:12.488Z,334.00
2023-05-16T07:15:12.468Z,336.00
2023-05-16T07:16:12.475Z,336.00
2023-05-16T07:17:12.493Z,334.00
2023-05-16T07:18:12.510Z,333.00
2023-05-16T07:19:12.506Z,329.00
2023-05-16T07:20:12.462Z,325.00
2023-05-16T07:21:12.397Z,320.00
2023-05-16T07:22:12.396Z,316.00
2023-05-16T07:23:12.394Z,313.00
2023-05-16T07:24:12.377Z,311.00
2023-05-16T07:25:12.367Z,308.00
2023-05-16T07:26:12.375Z,303.00
2023-05-16T07:27:12.336Z,299.00
2023-05-16T07:28:12.337Z,296.00
2023-05-16T07:29:12.328Z,294.00
2023-05-16T07:30:12.307Z,293.00
2023-05-16T07:31:12.331Z,293.00
2023-05-16T07:32:12.360Z,294.00
2023-05-16T07:33:12.304Z,298.00
2023-05-16T07:34:12.277Z,301.00
2023-05-16T07:35:12.246Z,308.00
2023-05-16T07:36:16.981Z,314.00
2023-05-16T07:37:13.267Z,321.00
2023-05-16T07:38:12.219Z,326.00
2023-05-16T07:39:12.215Z,331.00
2023-05-16T07:40:12.213Z,335.00
2023-05-16T07:41:12.212Z,336.00
2023-05-16T07:42:12.220Z,333.00
2023-05-16T07:43:12.225Z,329.00
2023-05-16T07:44:12.159Z,329.00
2023-05-16T07:45:12.140Z,334.00
2023-05-16T07:46:12.242Z,341.00
2023-05-16T07:47:12.118Z,347.00
2023-05-16T07:48:12.156Z,357.00
2023-05-16T07:49:12.110Z,365.00
2023-05-16T07:50:12.081Z,377.00
2023-05-16T07:51:12.073Z,393.00
2023-05-16T07:52:12.067Z,413.00
2023-05-16T07:53:12.052Z,434.00
2023-05-16T07:54:12.040Z,453.00
2023-05-16T07:55:12.056Z,478.00
2023-05-16T07:56:12.018Z,505.00
2023-05-16T07:57:12.010Z,576.00
2023-05-16T07:58:11.992Z,635.00
2023-05-16T07:59:12.039Z,612.00
2023-05-16T08:00:11.973Z,677.00
2023-05-16T08:01:12.007Z,779.00
2023-05-16T08:02:11.983Z,889.00
2023-05-16T08:03:11.980Z,913.00
2023-05-16T08:04:11.938Z,851.00
2023-05-16T08:05:11.986Z,783.00
2023-05-16T08:06:12.064Z,775.00
2023-05-16T08:07:11.945Z,761.00
2023-05-16T08:08:11.894Z,734.00
2023-05-16T08:09:11.882Z,755.00
2023-05-16T08:10:13.508Z,881.00
2023-05-16T08:11:11.859Z,1133.00
2023-05-16T08:12:11.847Z,2168.00
2023-05-16T08:13:11.914Z,790.00
2023-05-16T08:14:11.837Z,741.00
2023-05-16T08:15:11.826Z,689.00
2023-05-16T08:16:11.906Z,767.00
2023-05-16T08:17:12.056Z,1097.00
2023-05-16T08:18:12.748Z,1372.00
2023-05-16T08:19:11.841Z,1194.00
2023-05-16T08:20:11.786Z,1300.00
2023-05-16T08:21:11.770Z,1406.00
2023-05-16T08:22:11.755Z,1465.00
2023-05-16T08:23:11.747Z,1509.00
2023-05-16T08:24:11.738Z,1494.00
2023-05-16T08:25:11.751Z,1497.00
2023-05-16T08:26:11.761Z,1436.00
2023-05-16T08:27:11.741Z,1417.00
2023-05-16T08:28:11.698Z,1430.00
2023-05-16T08:29:11.684Z,1380.00
2023-05-16T08:30:11.670Z,1349.00
2023-05-16T08:31:11.724Z,1346.00
2023-05-16T08:32:11.651Z,1314.00
2023-05-16T08:33:11.669Z,1250.00
2023-05-16T08:34:11.626Z,1212.00
2023-05-16T08:35:11.642Z,969.00
2023-05-16T08:36:11.614Z,1005.00
2023-05-16T08:37:11.634Z,1006.00
2023-05-16T08:38:11.587Z,980.00
2023-05-16T08:39:11.597Z,1160.00
2023-05-16T08:40:11.606Z,1222.00
2023-05-16T08:41:11.562Z,1009.00
2023-05-16T08:42:11.561Z,1016.00
2023-05-16T08:43:11.605Z,1112.00
2023-05-16T08:44:11.525Z,960.00
2023-05-16T08:45:11.528Z,870.00
2023-05-16T08:46:11.517Z,922.00
2023-05-16T08:47:11.570Z,1825.00
2023-05-16T08:48:11.531Z,700.00
2023-05-16T08:49:11.515Z,685.00
2023-05-16T08:50:11.464Z,699.00
2023-05-16T08:51:11.445Z,691.00
2023-05-16T08:52:11.444Z,660.00
2023-05-16T08:53:11.423Z,671.00
2023-05-16T08:54:11.426Z,685.00
2023-05-16T08:55:12.011Z,689.00
2023-05-16T08:56:11.406Z,699.00
2023-05-16T08:57:12.277Z,693.00
2023-05-16T08:58:11.386Z,696.00
2023-05-16T08:59:11.367Z,702.00
2023-05-16T09:00:11.381Z,711.00
2023-05-16T09:01:11.403Z,732.00
2023-05-16T09:02:11.349Z,756.00
2023-05-16T09:03:11.372Z,800.00
2023-05-16T09:04:11.353Z,861.00
2023-05-16T09:05:11.328Z,929.00
2023-05-16T09:06:11.298Z,990.00
2023-05-16T09:07:11.307Z,968.00
2023-05-16T09:08:11.286Z,941.00
2023-05-16T09:09:11.260Z,942.00
2023-05-16T09:10:11.292Z,947.00
2023-05-16T09:11:11.235Z,1204.00
2023-05-16T09:12:11.240Z,1810.00
2023-05-16T09:13:11.252Z,1178.00
2023-05-16T09:14:11.214Z,1238.00
2023-05-16T09:15:11.324Z,1121.00
2023-05-16T09:16:11.197Z,1149.00
2023-05-16T09:17:12.635Z,1423.00
2023-05-16T09:18:11.214Z,2379.00
2023-05-16T09:19:11.247Z,1202.00
2023-05-16T09:20:11.209Z,1072.00
2023-05-16T09:21:11.145Z,1131.00
2023-05-16T09:22:11.163Z,1451.00
2023-05-16T09:23:11.128Z,1777.00
2023-05-16T09:24:11.119Z,1712.00
2023-05-16T09:25:29.472Z,1847.00
2023-05-16T09:26:12.101Z,1668.00
2023-05-16T09:27:11.085Z,1458.00
2023-05-16T09:28:11.844Z,1268.00
2023-05-16T09:29:11.069Z,1189.00
2023-05-16T09:30:11.057Z,1252.00
2023-05-16T09:31:11.136Z,1800.00
2023-05-16T09:32:11.034Z,1050.00
2023-05-16T09:33:11.061Z,1123.00
2023-05-16T09:34:11.018Z,1217.00
2023-05-16T09:35:11.006Z,1225.00
2023-05-16T09:36:10.998Z,1259.00
2023-05-16T09:37:11.012Z,1246.00
2023-05-16T09:38:10.972Z,1359.00
2023-05-16T09:39:10.964Z,1497.00
2023-05-16T09:40:10.950Z,1477.00
2023-05-16T09:41:10.958Z,1577.00
2023-05-16T09:42:10.931Z,1592.00
2023-05-16T09:43:10.949Z,1619.00
2023-05-16T09:44:10.907Z,1616.00
2023-05-16T09:45:10.906Z,1595.00
2023-05-16T09:46:10.929Z,1599.00
2023-05-16T09:47:10.870Z,1634.00
2023-05-16T09:48:10.891Z,1660.00
2023-05-16T09:49:10.932Z,1675.00
2023-05-16T09:50:10.847Z,1692.00
2023-05-16T09:51:10.836Z,1727.00
2023-05-16T09:52:10.831Z,1672.00
2023-05-16T09:53:10.809Z,1539.00
2023-05-16T09:54:10.801Z,1592.00
2023-05-16T09:55:10.887Z,1723.00
2023-05-16T09:56:10.783Z,1563.00
2023-05-16T09:57:10.779Z,1396.00
2023-05-16T09:58:10.770Z,1341.00
2023-05-16T09:59:10.758Z,1604.00
2023-05-16T10:00:10.738Z,1761.00
2023-05-16T10:01:10.757Z,1727.00
2023-05-16T10:02:10.770Z,1694.00
2023-05-16T10:03:10.824Z,1702.00
2023-05-16T10:04:10.813Z,1696.00
2023-05-16T10:05:10.682Z,1681.00
2023-05-16T10:06:10.675Z,1653.00
2023-05-16T10:07:10.693Z,1554.00
2023-05-16T10:08:10.654Z,1470.00
2023-05-16T10:09:10.646Z,1556.00
2023-05-16T10:10:10.643Z,1634.00
2023-05-16T10:11:10.633Z,1658.00
2023-05-16T10:12:10.619Z,1691.00
2023-05-16T10:13:10.630Z,1728.00
2023-05-16T10:14:10.595Z,1682.00
2023-05-16T10:15:10.586Z,1625.00
2023-05-16T10:16:10.606Z,1699.00
2023-05-16T10:17:10.592Z,1669.00
2023-05-16T10:18:10.579Z,1640.00
2023-05-16T10:19:10.713Z,1577.00
2023-05-16T10:20:10.543Z,1555.00
2023-05-16T10:21:11.790Z,983.00
2023-05-16T10:22:10.513Z,885.00
2023-05-16T10:23:10.504Z,690.00
2023-05-16T10:24:10.494Z,684.00
2023-05-16T10:25:10.555Z,675.00
2023-05-16T10:26:10.480Z,660.00
2023-05-16T10:27:10.465Z,655.00
2023-05-16T10:28:10.462Z,663.00
2023-05-16T10:29:10.441Z,708.00
2023-05-16T10:30:10.434Z,958.00
2023-05-16T10:31:10.457Z,1409.00
2023-05-16T10:32:10.474Z,1555.00
2023-05-16T10:33:10.443Z,1452.00
2023-05-16T10:34:10.387Z,1402.00
2023-05-16T10:35:10.376Z,1356.00
2023-05-16T10:36:10.369Z,1269.00
2023-05-16T10:37:11.330Z,1217.00
2023-05-16T10:38:10.354Z,1343.00
2023-05-16T10:39:10.336Z,1544.00
2023-05-16T10:40:10.324Z,1585.00
2023-05-16T10:41:10.342Z,1490.00
2023-05-16T10:42:10.314Z,1428.00
2023-05-16T10:43:10.338Z,1437.00
2023-05-16T10:44:10.278Z,1506.00
2023-05-16T10:45:10.272Z,1609.00
2023-05-16T10:46:10.346Z,1648.00
2023-05-16T10:47:10.250Z,1671.00
2023-05-16T10:48:10.377Z,1730.00
2023-05-16T10:49:10.255Z,1781.00
2023-05-16T10:50:10.218Z,1798.00
2023-05-16T10:51:10.214Z,1666.00
2023-05-16T10:52:10.222Z,3367.00
2023-05-16T10:53:10.189Z,685.00
2023-05-16T10:54:10.182Z,669.00
2023-05-16T10:55:10.267Z,598.00
2023-05-16T10:56:10.176Z,554.00
2023-05-16T10:57:10.254Z,531.00
2023-05-16T10:58:10.145Z,520.00
2023-05-16T10:59:10.145Z,513.00
2023-05-16T11:00:10.114Z,515.00
2023-05-16T11:01:10.223Z,516.00
2023-05-16T11:02:10.108Z,518.00
2023-05-16T11:03:10.809Z,521.00
2023-05-16T11:04:10.070Z,521.00
2023-05-16T11:05:10.066Z,518.00
2023-05-16T11:06:10.058Z,507.00
2023-05-16T11:07:10.086Z,493.00
2023-05-16T11:08:10.033Z,486.00
2023-05-16T11:09:10.261Z,483.00
2023-05-16T11:10:10.020Z,487.00
2023-05-16T11:11:10.003Z,492.00
2023-05-16T11:12:09.993Z,493.00
2023-05-16T11:13:10.020Z,494.00
2023-05-16T11:14:09.972Z,498.00
2023-05-16T11:15:09.960Z,503.00
2023-05-16T11:16:09.960Z,505.00
2023-05-16T11:17:10.045Z,508.00
2023-05-16T11:18:10.037Z,508.00
2023-05-16T11:19:09.998Z,504.00
2023-05-16T11:20:09.922Z,499.00
2023-05-16T11:21:09.940Z,496.00
2023-05-16T11:22:09.910Z,493.00
2023-05-16T11:23:09.889Z,491.00
2023-05-16T11:24:09.882Z,492.00
2023-05-16T11:25:09.939Z,501.00
2023-05-16T11:26:09.858Z,510.00
2023-05-16T11:27:09.841Z,519.00
2023-05-16T11:28:09.846Z,522.00
2023-05-16T11:29:09.828Z,518.00
2023-05-16T11:30:09.816Z,508.00
2023-05-16T11:31:09.847Z,498.00
2023-05-16T11:32:09.795Z,490.00
2023-05-16T11:33:09.851Z,487.00
2023-05-16T11:34:09.785Z,487.00
2023-05-16T11:35:11.016Z,486.00
2023-05-16T11:37:09.761Z,487.00
2023-05-16T11:38:09.726Z,476.00
2023-05-16T11:39:09.789Z,451.00
2023-05-16T11:40:09.733Z,426.00
2023-05-16T11:41:09.700Z,401.00
2023-05-16T11:42:09.687Z,382.00
2023-05-16T11:43:09.723Z,361.00
2023-05-16T11:44:09.666Z,346.00
2023-05-16T11:45:09.679Z,335.00
2023-05-16T11:46:10.672Z,322.00
2023-05-16T11:47:09.668Z,324.00
2023-05-16T11:48:09.705Z,320.00
2023-05-16T11:49:09.664Z,315.00
2023-05-16T11:50:09.603Z,316.00
2023-05-16T11:51:09.597Z,311.00
2023-05-16T11:52:09.632Z,298.00
2023-05-16T11:53:09.584Z,295.00
2023-05-16T11:54:09.557Z,281.00
2023-05-16T11:55:09.586Z,277.00
2023-05-16T11:56:09.544Z,274.00
2023-05-16T11:57:09.541Z,273.00
2023-05-16T11:58:09.675Z,272.00
2023-05-16T11:59:09.515Z,271.00
2023-05-16T12:00:09.494Z,297.00
2023-05-16T12:01:09.526Z,323.00
2023-05-16T12:02:09.482Z,322.00
2023-05-16T12:03:09.521Z,323.00
2023-05-16T12:04:09.643Z,306.00
2023-05-16T12:05:09.497Z,302.00
2023-05-16T12:06:09.441Z,297.00
2023-05-16T12:07:09.451Z,285.00
2023-05-16T12:08:09.419Z,283.00
2023-05-16T12:09:09.415Z,280.00
2023-05-16T12:10:09.391Z,276.00
2023-05-16T12:11:09.430Z,276.00
2023-05-16T12:12:09.375Z,290.00
2023-05-16T12:13:09.410Z,302.00
2023-05-16T12:14:09.356Z,300.00
2023-05-16T12:15:09.362Z,314.00
2023-05-16T12:16:09.379Z,319.00
2023-05-16T12:17:09.441Z,306.00
2023-05-16T12:18:09.370Z,311.00
2023-05-16T12:19:09.364Z,311.00
2023-05-16T12:20:09.290Z,310.00
2023-05-16T12:21:09.297Z,322.00
2023-05-16T12:22:09.277Z,311.00
2023-05-16T12:23:09.268Z,295.00
2023-05-16T12:24:09.256Z,301.00
2023-05-16T12:25:09.986Z,308.00
2023-05-16T12:26:09.244Z,316.00
2023-05-16T12:27:09.226Z,324.00
2023-05-16T12:28:09.464Z,333.00
2023-05-16T12:29:09.213Z,342.00
2023-05-16T12:30:09.191Z,351.00
2023-05-16T12:31:15.737Z,358.00
2023-05-16T12:32:10.213Z,363.00
2023-05-16T12:33:09.286Z,368.00
2023-05-16T12:34:09.157Z,366.00
2023-05-16T12:35:09.152Z,359.00
2023-05-16T12:36:09.133Z,355.00
2023-05-16T12:37:09.149Z,354.00
2023-05-16T12:38:09.126Z,357.00
2023-05-16T12:39:09.499Z,358.00